Time;durP1;ratioP1;P1;durP2;ratioP2;P2;SDS_P1;SDS_P2;PMS_P1;PMS_P2;Temp;Humidity;BMP_temperature;BMP_pressure;BME280_temperature;BME280_humidity;BME280_pressure;Samples;Min_cycle;Max_cycle;Signal;HPM_P1;HPM_P2
2024/04/02 00:02:17;;;;;;;2.38;0.70;;;;;;;10.56;100.00;100100.22;5243213;28;20029;-79
2024/04/02 00:04:49;;;;;;;3.35;0.80;;;;;;;10.52;100.00;100109.34;5243280;28;20029;-80
2024/04/02 00:07:21;;;;;;;2.83;0.80;;;;;;;10.53;100.00;100105.72;5243667;28;20090;-80
2024/04/02 00:09:53;;;;;;;1.20;0.65;;;;;;;10.52;100.00;100117.19;5243992;28;20036;-80
2024/04/02 00:12:25;;;;;;;3.63;0.75;;;;;;;10.53;100.00;100117.06;5245141;28;20119;-79
2024/04/02 00:14:57;;;;;;;1.17;0.60;;;;;;;10.54;100.00;100115.25;5240739;28;20058;-80
2024/04/02 00:17:29;;;;;;;1.98;0.80;;;;;;;10.51;100.00;100110.31;5226782;28;20103;-80
2024/04/02 00:20:04;;;;;;;2.55;0.90;;;;;;;10.54;100.00;100103.00;5243753;28;20061;-79
2024/04/02 00:22:36;;;;;;;2.20;0.95;;;;;;;10.50;100.00;100113.91;5245985;28;20052;-79
2024/04/02 00:25:08;;;;;;;1.67;0.90;;;;;;;10.53;100.00;100118.84;5247842;28;20405;-80
2024/04/02 00:27:40;;;;;;;2.22;0.82;;;;;;;10.53;100.00;100117.06;5248916;28;20036;-80
2024/04/02 00:30:23;;;;;;;1.85;0.82;;;;;;;10.53;100.00;100116.22;5248773;28;20040;-79
2024/04/02 00:32:56;;;;;;;3.95;1.00;;;;;;;10.54;100.00;100115.25;5248922;28;20021;-80
2024/04/02 00:35:28;;;;;;;3.53;1.30;;;;;;;10.59;100.00;100118.25;5249342;28;20372;-79
2024/04/02 00:38:00;;;;;;;1.60;0.70;;;;;;;10.53;100.00;100117.06;5247663;28;20135;-80
2024/04/02 00:40:31;;;;;;;2.30;0.98;;;;;;;10.56;100.00;100129.84;5248181;28;20684;-80
2024/04/02 00:43:07;;;;;;;2.10;0.90;;;;;;;10.63;100.00;100127.47;5251407;28;20064;-81
2024/04/02 00:45:40;;;;;;;2.17;0.93;;;;;;;10.50;100.00;100127.81;5229691;28;20056;-79
2024/04/02 00:48:12;;;;;;;2.97;0.80;;;;;;;10.53;100.00;100121.44;5244514;28;20028;-79
2024/04/02 00:50:45;;;;;;;2.00;0.90;;;;;;;10.54;100.00;100125.75;5226483;28;20049;-79
2024/04/02 00:53:19;;;;;;;1.83;0.75;;;;;;;10.49;100.00;100115.69;5247150;28;20036;-79
2024/04/02 00:55:52;;;;;;;2.60;0.98;;;;;;;10.53;100.00;100126.69;5247802;28;20510;-79
2024/04/02 00:58:28;;;;;;;2.08;1.00;;;;;;;10.53;100.00;100129.31;5246826;28;20509;-79
2024/04/02 01:01:00;;;;;;;1.92;0.80;;;;;;;10.51;100.00;100139.94;5247200;28;20037;-79
2024/04/02 01:03:32;;;;;;;2.38;1.10;;;;;;;10.52;100.00;100138.97;5247370;28;20041;-79
2024/04/02 01:06:05;;;;;;;4.10;1.17;;;;;;;10.38;100.00;100135.06;5248825;28;20052;-79
2024/04/02 01:08:40;;;;;;;3.85;1.17;;;;;;;10.46;100.00;100142.19;5250742;28;20482;-79
2024/04/02 01:11:12;;;;;;;2.13;1.17;;;;;;;10.45;100.00;100140.53;5251351;28;20826;-81
2024/04/02 01:13:46;;;;;;;2.83;1.10;;;;;;;10.41;100.00;100149.63;5248641;28;20036;-79
2024/04/02 01:16:18;;;;;;;2.40;0.98;;;;;;;10.33;100.00;100137.28;5249238;28;20029;-79
2024/04/02 01:18:50;;;;;;;2.03;0.80;;;;;;;10.38;100.00;100155.16;5248030;28;20091;-79
2024/04/02 01:21:22;;;;;;;3.28;0.98;;;;;;;10.36;100.00;100152.69;5248610;28;20036;-80
2024/04/02 01:23:54;;;;;;;2.90;1.27;;;;;;;10.34;100.00;100153.81;5248527;28;20041;-79
2024/04/02 01:26:26;;;;;;;3.47;1.17;;;;;;;10.35;100.00;100153.69;5249135;28;20033;-79
2024/04/02 01:29:00;;;;;;;2.63;1.20;;;;;;;10.35;100.00;100156.28;5244721;28;20060;-79
2024/04/02 01:31:32;;;;;;;3.05;0.95;;;;;;;10.35;100.00;100158.91;5245252;28;20029;-79
2024/04/02 01:34:05;;;;;;;2.65;1.10;;;;;;;10.32;100.00;100164.44;5245803;28;20029;-79
2024/04/02 01:36:37;;;;;;;4.20;1.40;;;;;;;10.35;100.00;100161.53;5247120;28;20040;-80
2024/04/02 01:39:09;;;;;;;3.03;1.15;;;;;;;10.31;100.00;100157.56;5246518;28;20028;-81
2024/04/02 01:41:41;;;;;;;3.08;1.02;;;;;;;10.31;100.00;100167.22;5229059;28;20045;-80
2024/04/02 01:44:13;;;;;;;3.38;1.10;;;;;;;10.27;100.00;100169.28;5246944;28;20040;-79
2024/04/02 01:46:45;;;;;;;4.25;1.20;;;;;;;10.27;100.00;100169.28;5246658;28;20041;-79
2024/04/02 01:49:16;;;;;;;2.67;1.20;;;;;;;10.30;100.00;100160.31;5245889;28;20033;-80
2024/04/02 01:51:48;;;;;;;3.33;1.02;;;;;;;10.30;100.00;100168.97;5247551;28;20024;-79
2024/04/02 01:54:20;;;;;;;2.40;0.90;;;;;;;10.27;100.00;100169.28;5246181;28;20044;-79
2024/04/02 01:56:52;;;;;;;3.75;1.33;;;;;;;10.29;100.00;100163.91;5246959;28;20717;-79
2024/04/02 01:59:24;;;;;;;3.40;1.35;;;;;;;10.28;100.00;100162.25;5242582;28;20029;-80
2024/04/02 02:01:56;;;;;;;4.05;1.20;;;;;;;10.33;100.00;100165.25;5242484;28;20037;-80
2024/04/02 02:04:28;;;;;;;2.60;1.38;;;;;;;10.26;100.00;100158.94;5242913;28;20029;-79
2024/04/02 02:07:00;;;;;;;3.80;1.00;;;;;;;10.27;100.00;100169.28;5244136;28;20041;-79
2024/04/02 02:09:32;;;;;;;3.03;1.20;;;;;;;10.27;100.00;100168.47;5245983;28;20044;-79
2024/04/02 02:12:04;;;;;;;4.63;1.20;;;;;;;10.26;100.00;100172.84;5241843;28;20040;-78
2024/04/02 02:14:36;;;;;;;4.85;0.93;;;;;;;10.26;100.00;100170.25;5242747;28;20474;-80
2024/04/02 02:17:08;;;;;;;2.55;1.10;;;;;;;10.24;100.00;100177.41;5244640;28;20029;-79
2024/04/02 02:19:40;;;;;;;3.35;1.10;;;;;;;10.18;100.00;100170.09;5243028;28;20544;-79
2024/04/02 02:22:12;;;;;;;3.92;1.20;;;;;;;10.17;100.00;100179.75;5246870;28;20041;-79
2024/04/02 02:24:44;;;;;;;3.13;1.30;;;;;;;10.19;100.00;100182.22;5245933;28;20029;-79
2024/04/02 02:27:16;;;;;;;2.25;1.00;;;;;;;10.19;100.00;100190.06;5245593;28;20037;-79
2024/04/02 02:29:48;;;;;;;1.40;0.60;;;;;;;10.14;100.00;100190.50;5244766;28;20033;-79
2024/04/02 02:32:19;;;;;;;3.42;1.23;;;;;;;10.12;100.00;100192.47;5241055;28;20044;-80
2024/04/02 02:34:51;;;;;;;3.17;1.52;;;;;;;10.11;100.00;100196.03;5243703;28;20036;-80
2024/04/02 02:37:23;;;;;;;4.28;1.35;;;;;;;10.11;100.00;100195.19;5246053;28;20421;-79
2024/04/02 02:39:56;;;;;;;3.50;1.00;;;;;;;10.09;100.00;100197.97;5243840;28;20029;-79
2024/04/02 02:42:28;;;;;;;2.10;1.00;;;;;;;10.09;100.00;100186.69;5240462;28;20115;-79
2024/04/02 02:45:00;;;;;;;3.13;1.40;;;;;;;10.08;100.00;100208.59;5244682;28;20052;-80
2024/04/02 02:47:32;;;;;;;3.90;1.30;;;;;;;10.10;100.00;100204.84;5245519;28;20032;-80
2024/04/02 02:50:04;;;;;;;3.88;1.10;;;;;;;10.05;100.00;100199.22;5248170;28;20032;-80
2024/04/02 02:52:36;;;;;;;3.10;1.20;;;;;;;10.08;100.00;100203.38;5241145;28;20033;-80
2024/04/02 02:55:09;;;;;;;1.65;0.80;;;;;;;9.99;100.00;100208.47;5245624;28;20554;-80
2024/04/02 02:57:40;;;;;;;3.28;1.20;;;;;;;10.01;100.00;100216.19;5245271;28;20033;-80
2024/04/02 03:00:12;;;;;;;4.28;1.13;;;;;;;9.99;100.00;100200.59;5245595;28;20029;-79
2024/04/02 03:02:45;;;;;;;3.50;1.58;;;;;;;10.00;100.00;100209.31;5245517;28;20029;-79
2024/04/02 03:05:17;;;;;;;2.83;1.30;;;;;;;10.01;100.00;100215.38;5237872;28;20053;-79
2024/04/02 03:07:49;;;;;;;4.25;1.35;;;;;;;9.91;100.00;100202.28;5243851;28;20040;-79
2024/04/02 03:10:21;;;;;;;3.88;1.33;;;;;;;9.92;100.00;100203.94;5223281;28;20040;-80
2024/04/02 03:12:53;;;;;;;3.45;1.33;;;;;;;9.84;100.00;100194.19;5243321;28;20032;-79
2024/04/02 03:15:25;;;;;;;2.38;1.00;;;;;;;9.94;100.00;100213.31;5243431;28;20036;-79
2024/04/02 03:17:57;;;;;;;3.65;1.60;;;;;;;9.90;100.00;100214.56;5244358;28;20037;-79
2024/04/02 03:20:29;;;;;;;4.18;1.40;;;;;;;9.92;100.00;100220.47;5244475;28;20036;-79
2024/04/02 03:23:01;;;;;;;2.55;0.95;;;;;;;9.89;100.00;100220.75;5246311;28;20458;-80
2024/04/02 03:25:33;;;;;;;3.75;1.48;;;;;;;9.87;100.00;100225.28;5224711;28;20889;-79
2024/04/02 03:28:06;;;;;;;3.05;1.20;;;;;;;9.86;100.00;100233.28;5244567;28;20029;-79
2024/04/02 03:30:37;;;;;;;1.70;1.10;;;;;;;9.87;100.00;100227.91;5245206;28;20033;-79
2024/04/02 03:33:10;;;;;;;3.42;1.08;;;;;;;9.87;100.00;100227.09;5243839;28;20049;-79
2024/04/02 03:35:41;;;;;;;2.47;1.10;;;;;;;9.88;100.00;100228.72;5244790;28;20040;-79
2024/04/02 03:38:13;;;;;;;5.82;1.17;;;;;;;9.88;100.00;100231.34;5244184;28;20377;-80
2024/04/02 03:40:47;;;;;;;5.30;1.77;;;;;;;9.90;100.00;100229.44;5243781;28;20021;-79
2024/04/02 03:43:19;;;;;;;2.28;1.17;;;;;;;9.84;100.00;100235.22;5244562;28;20035;-79
2024/04/02 03:45:51;;;;;;;2.53;1.10;;;;;;;9.82;100.00;100232.75;5243872;28;20403;-79
2024/04/02 03:48:23;;;;;;;2.20;0.88;;;;;;;9.84;100.00;100241.28;5243727;28;20129;-80
2024/04/02 03:50:55;;;;;;;3.45;1.27;;;;;;;9.81;100.00;100241.56;5244174;28;20028;-79
2024/04/02 03:53:27;;;;;;;2.55;1.17;;;;;;;9.82;100.00;100243.22;5245041;28;20029;-79
2024/04/02 03:56:02;;;;;;;2.80;1.00;;;;;;;9.81;100.00;100256.41;5244463;28;20544;-81
2024/04/02 03:58:34;;;;;;;3.28;1.38;;;;;;;9.80;100.00;100260.81;5246038;28;20032;-80
2024/04/02 04:01:08;;;;;;;3.38;1.33;;;;;;;9.73;100.00;100246.66;5247167;28;20064;-79
2024/04/02 04:03:40;;;;;;;2.75;1.42;;;;;;;9.82;100.00;100258.91;5247745;28;20074;-79
2024/04/02 04:06:12;;;;;;;4.15;1.17;;;;;;;9.81;100.00;100262.50;5248542;28;20065;-79
2024/04/02 04:08:44;;;;;;;2.50;1.13;;;;;;;9.79;100.00;100269.66;5248299;28;20877;-79
2024/04/02 04:11:16;;;;;;;4.72;1.50;;;;;;;9.81;100.00;100278.19;5246197;28;20040;-79
2024/04/02 04:13:48;;;;;;;3.50;1.10;;;;;;;9.81;100.00;100270.34;5248436;28;20581;-79
2024/04/02 04:16:20;;;;;;;2.33;0.98;;;;;;;9.83;100.00;100276.25;5247978;28;20035;-80
2024/04/02 04:18:52;;;;;;;4.50;1.40;;;;;;;9.87;100.00;100280.25;5247556;28;20047;-80
2024/04/02 04:21:24;;;;;;;4.13;1.73;;;;;;;9.91;100.00;100275.56;5230170;28;20044;-80
2024/04/02 04:23:56;;;;;;;3.50;1.30;;;;;;;9.93;100.00;100274.47;5248429;28;20033;-80
2024/04/02 04:26:28;;;;;;;2.97;1.23;;;;;;;9.96;100.00;100278.56;5249211;28;20031;-80
2024/04/02 04:28:59;;;;;;;4.55;1.60;;;;;;;9.99;100.00;100280.91;5247424;28;20047;-80
2024/04/02 04:31:31;;;;;;;3.38;1.17;;;;;;;9.99;100.00;100289.59;5248299;28;20981;-79
2024/04/02 04:34:03;;;;;;;2.47;0.90;;;;;;;10.01;100.00;100291.25;5248262;28;20352;-79
2024/04/02 04:36:35;;;;;;;4.03;1.30;;;;;;;9.99;100.00;100291.38;5246164;28;20032;-80
2024/04/02 04:39:08;;;;;;;2.25;1.08;;;;;;;9.97;100.00;100288.91;5244744;28;20033;-80
2024/04/02 04:41:39;;;;;;;4.97;1.20;;;;;;;10.04;100.00;100304.88;5248369;28;20033;-79
2024/04/02 04:44:11;;;;;;;4.82;1.40;;;;;;;9.95;100.00;100290.84;5248691;28;20088;-79
2024/04/02 04:46:43;;;;;;;2.90;1.05;;;;;;;9.85;100.00;100279.56;5247917;28;20037;-78
2024/04/02 04:49:15;;;;;;;4.10;1.27;;;;;;;9.94;100.00;100302.28;5249054;28;20031;-78
2024/04/02 04:51:47;;;;;;;2.95;1.10;;;;;;;9.94;100.00;100299.66;5248389;28;20028;-78
2024/04/02 04:54:19;;;;;;;3.92;1.08;;;;;;;9.92;100.00;100301.56;5248866;28;20079;-79
2024/04/02 04:56:51;;;;;;;4.75;1.42;;;;;;;9.95;100.00;100308.31;5250351;28;20053;-79
2024/04/02 04:59:23;;;;;;;3.33;1.42;;;;;;;9.95;100.00;100311.75;5245894;28;20033;-78
2024/04/02 05:01:55;;;;;;;6.47;1.73;;;;;;;9.91;100.00;100310.38;5229944;28;20045;-79
2024/04/02 05:04:27;;;;;;;5.45;1.30;;;;;;;9.89;100.00;100309.72;5247249;28;20397;-79
2024/04/02 05:06:58;;;;;;;2.95;1.08;;;;;;;9.89;100.00;100307.09;5247511;28;20032;-78
2024/04/02 05:09:30;;;;;;;5.97;1.88;;;;;;;9.89;100.00;100307.09;5243042;28;20039;-79
2024/04/02 05:12:03;;;;;;;4.93;1.30;;;;;;;9.85;100.00;100305.72;5247258;28;20041;-78
2024/04/02 05:14:34;;;;;;;5.07;1.42;;;;;;;9.95;100.00;100318.78;5229600;28;20048;-78
2024/04/02 05:17:06;;;;;;;2.95;1.33;;;;;;;9.92;100.00;100324.28;5247539;28;20037;-77
2024/04/02 05:19:38;;;;;;;4.53;1.70;;;;;;;9.89;100.00;100314.97;5246387;28;20028;-78
2024/04/02 05:22:10;;;;;;;4.10;1.35;;;;;;;9.87;100.00;100324.72;5220306;28;20052;-78
2024/04/02 05:24:43;;;;;;;4.40;1.63;;;;;;;9.90;100.00;100324.44;5242080;28;20037;-77
2024/04/02 05:27:15;;;;;;;4.50;1.30;;;;;;;9.92;100.00;100327.72;5245841;28;20326;-77
2024/04/02 05:29:47;;;;;;;5.63;1.60;;;;;;;9.91;100.00;100338.34;5244462;28;20035;-76
2024/04/02 05:32:18;;;;;;;5.03;1.50;;;;;;;9.89;100.00;100345.53;5247519;28;20029;-78
2024/04/02 05:34:50;;;;;;;7.10;1.50;;;;;;;9.90;100.00;100342.75;5245524;28;20033;-77
2024/04/02 05:37:22;;;;;;;3.63;1.00;;;;;;;9.83;100.00;100336.44;5248763;28;20035;-78
2024/04/02 05:39:54;;;;;;;7.07;1.25;;;;;;;9.90;100.00;100350.63;5244836;28;20037;-78
2024/04/02 05:42:26;;;;;;;4.00;1.45;;;;;;;9.91;100.00;100346.19;5247814;28;20442;-77
2024/04/02 05:44:59;;;;;;;5.03;1.42;;;;;;;9.92;100.00;100347.84;5244406;28;20403;-77
2024/04/02 05:47:31;;;;;;;4.57;1.55;;;;;;;9.95;100.00;100342.34;5246498;28;20028;-76
2024/04/02 05:50:04;;;;;;;6.15;1.73;;;;;;;9.95;100.00;100358.88;5247020;28;20130;-76
2024/04/02 05:52:36;;;;;;;4.53;1.60;;;;;;;9.95;100.00;100342.34;5247517;28;20040;-78
2024/04/02 05:55:07;;;;;;;3.85;1.13;;;;;;;10.08;100.00;100355.16;5248427;28;20026;-78
2024/04/02 05:57:39;;;;;;;4.90;1.65;;;;;;;10.14;100.00;100357.22;5249502;28;20035;-77
2024/04/02 06:00:12;;;;;;;6.32;1.65;;;;;;;10.20;100.00;100367.13;5230405;28;20040;-76
2024/04/02 06:02:43;;;;;;;6.65;1.63;;;;;;;10.22;100.00;100378.28;5247541;28;20037;-78
2024/04/02 06:05:16;;;;;;;6.97;1.33;;;;;;;10.28;100.00;100375.16;5246213;28;20029;-79
2024/04/02 06:07:49;;;;;;;6.57;1.80;;;;;;;10.37;100.00;100379.53;5242931;28;20872;-79
2024/04/02 06:10:21;;;;;;;4.55;1.48;;;;;;;10.39;100.00;100388.09;5244694;28;20033;-78
2024/04/02 06:12:53;;;;;;;5.97;1.48;;;;;;;10.46;100.00;100383.13;5246441;28;20029;-78
2024/04/02 06:15:25;;;;;;;5.35;1.77;;;;;;;10.53;100.00;100385.97;5227374;28;20048;-79
2024/04/02 06:17:57;;;;;;;6.28;1.58;;;;;;;10.56;100.00;100393.56;5245007;28;20542;-79
2024/04/02 06:20:29;;;;;;;5.78;1.60;;;;;;;10.61;100.00;100394.00;5244874;28;20037;-78
2024/04/02 06:23:01;;;;;;;4.63;1.33;;;;;;;10.63;100.00;100389.41;5243916;28;21191;-79
2024/04/02 06:25:33;;;;;;;7.65;1.92;;;;;;;10.71;100.00;100397.38;5245728;28;20037;-79
2024/04/02 06:28:05;;;;;;;12.05;2.58;;;;;;;10.69;100.00;100381.00;5227696;28;20044;-80
2024/04/02 06:30:37;;;;;;;6.07;2.03;;;;;;;10.79;100.00;100394.06;5229060;28;20041;-79
2024/04/02 06:33:09;;;;;;;5.72;1.75;;;;;;;10.86;100.00;100395.97;5243765;28;20033;-79
2024/04/02 06:35:41;;;;;;;7.80;2.10;;;;;;;10.87;100.00;100402.03;5244922;28;20399;-79
2024/04/02 06:38:13;;;;;;;8.60;1.90;;;;;;;10.97;100.00;100400.22;5225679;28;20048;-79
2024/04/02 06:40:45;;;;;;;8.50;2.20;;;;;;;10.96;100.00;100402.00;5244861;28;20029;-79
2024/04/02 06:43:17;;;;;;;8.07;1.90;;;;;;;11.04;100.00;100397.84;5240300;28;20047;-79
2024/04/02 06:45:55;;;;;;;7.85;2.33;;;;;;;11.20;100.00;100400.66;5244404;28;20498;-78
2024/04/02 06:48:28;;;;;;;6.82;1.92;;;;;;;11.15;100.00;100406.34;5242743;28;20039;-79
2024/04/02 06:51:05;;;;;;;9.60;2.30;;;;;;;11.27;100.00;100407.00;5244724;28;20039;-79
2024/04/02 06:53:37;;;;;;;6.88;2.20;;;;;;;11.16;100.00;100408.00;5244630;28;20025;-80
2024/04/02 06:56:09;;;;;;;6.63;1.90;;;;;;;11.16;100.00;100404.56;5244927;28;20490;-80
2024/04/02 06:58:40;;;;;;;8.02;2.45;;;;;;;11.20;100.00;100398.88;5224858;28;20044;-79
2024/04/02 07:01:13;;;;;;;9.55;2.00;;;;;;;11.23;100.00;100408.25;5242629;28;20304;-79
2024/04/02 07:03:45;;;;;;;8.85;2.60;;;;;;;11.25;100.00;100403.69;5244046;28;20041;-78
2024/04/02 07:06:16;;;;;;;7.55;2.42;;;;;;;11.30;100.00;100411.94;5245273;28;20029;-79
2024/04/02 07:08:48;;;;;;;7.15;2.03;;;;;;;11.35;100.00;100417.56;5241976;28;20033;-78
2024/04/02 07:11:20;;;;;;;8.85;2.20;;;;;;;11.48;100.00;100416.41;5225758;28;20521;-80
2024/04/02 07:13:52;;;;;;;9.35;1.83;;;;;;;11.50;100.00;100419.72;5243447;28;20440;-78
2024/04/02 07:16:24;;;;;;;7.30;1.80;;;;;;;11.53;100.00;100419.44;5243880;28;20033;-79
2024/04/02 07:18:56;;;;;;;8.57;2.55;;;;;;;11.65;100.00;100415.63;5242776;28;20036;-78
2024/04/02 07:21:28;;;;;;;10.30;1.88;;;;;;;11.72;100.00;100426.34;5243489;28;20056;-80
2024/04/02 07:24:00;;;;;;;10.45;2.10;;;;;;;11.74;100.00;100419.97;5243440;28;20082;-78
2024/04/02 07:26:32;;;;;;;8.90;2.28;;;;;;;11.76;100.00;100425.09;5242882;28;20032;-80
2024/04/02 07:29:04;;;;;;;6.38;2.05;;;;;;;11.82;100.00;100424.47;5240987;28;20029;-79
2024/04/02 07:31:36;;;;;;;10.32;2.42;;;;;;;11.81;100.00;100428.91;5242416;28;20024;-78
2024/04/02 07:34:07;;;;;;;9.68;2.25;;;;;;;11.83;100.00;100434.88;5243904;28;20359;-78
2024/04/02 07:36:39;;;;;;;8.50;2.13;;;;;;;11.86;100.00;100434.59;5242946;28;20045;-78
2024/04/02 07:39:11;;;;;;;7.43;1.98;;;;;;;11.95;100.00;100426.78;5224347;28;20151;-79
2024/04/02 07:41:43;;;;;;;9.50;2.05;;;;;;;12.04;100.00;100431.94;5244207;28;20029;-78
2024/04/02 07:44:15;;;;;;;8.93;2.20;;;;;;;12.05;100.00;100431.00;5243411;28;20433;-80
2024/04/02 07:46:48;;;;;;;6.10;2.42;;;;;;;12.17;100.00;100435.03;5243442;28;20033;-80
2024/04/02 07:49:20;;;;;;;5.65;2.08;;;;;;;12.17;100.00;100434.22;5241752;28;20253;-79
2024/04/02 07:51:52;;;;;;;7.78;1.65;;;;;;;12.23;100.00;100433.59;5242475;28;20099;-79
2024/04/02 07:54:24;;;;;;;8.32;2.20;;;;;;;12.22;100.00;100436.41;5243607;28;20039;-79
2024/04/02 07:56:56;;;;;;;8.18;1.90;;;;;;;12.16;100.00;100432.59;5243156;28;20479;-79
2024/04/02 07:59:29;;;;;;;10.82;2.47;;;;;;;12.16;100.00;100427.34;5242303;28;20490;-80
2024/04/02 08:02:01;;;;;;;7.07;1.92;;;;;;;12.21;100.00;100443.44;5243634;28;20039;-78
2024/04/02 08:04:33;;;;;;;8.57;2.33;;;;;;;12.29;100.00;100447.94;5243530;28;20033;-80
2024/04/02 08:07:05;;;;;;;6.97;1.92;;;;;;;12.17;100.00;100455.22;5243801;28;20028;-79
2024/04/02 08:09:37;;;;;;;10.77;2.03;;;;;;;12.21;100.00;100447.88;5241574;28;20037;-80
2024/04/02 08:12:09;;;;;;;8.55;2.28;;;;;;;12.30;100.00;100449.59;5243859;28;20402;-78
2024/04/02 08:14:40;;;;;;;6.45;1.50;;;;;;;12.41;100.00;100458.06;5242377;28;20036;-78
2024/04/02 08:17:15;;;;;;;7.70;2.20;;;;;;;12.38;100.00;100453.09;5243693;28;20033;-79
2024/04/02 08:19:48;;;;;;;8.52;1.80;;;;;;;12.47;100.00;100458.44;5242723;28;20454;-79
2024/04/02 08:22:20;;;;;;;8.98;2.05;;;;;;;12.46;100.00;100449.72;5241822;28;20032;-79
2024/04/02 08:24:54;;;;;;;10.25;2.50;;;;;;;12.50;100.00;100461.59;5241178;28;20048;-79
2024/04/02 08:27:27;;;;;;;5.43;2.00;;;;;;;12.59;100.00;100479.06;5243976;28;20035;-79
2024/04/02 08:29:59;;;;;;;6.53;1.70;;;;;;;12.60;100.00;100472.00;5242184;28;20420;-79
2024/04/02 08:32:31;;;;;;;7.53;1.92;;;;;;;12.66;100.00;100476.66;5223562;28;20079;-80
2024/04/02 08:35:04;;;;;;;6.07;1.90;;;;;;;12.64;100.00;100471.56;5240755;28;20033;-78
2024/04/02 08:37:37;;;;;;;6.68;1.90;;;;;;;12.69;99.59;100478.16;5243504;28;20028;-79
2024/04/02 08:40:09;;;;;;;8.50;1.85;;;;;;;12.66;98.75;100477.50;5241428;28;20031;-79
2024/04/02 08:42:41;;;;;;;6.85;1.90;;;;;;;12.64;99.15;100481.25;5244312;28;20059;-79
2024/04/02 08:45:16;;;;;;;7.15;2.20;;;;;;;12.66;97.30;100472.22;5245353;28;20390;-79
2024/04/02 08:47:49;;;;;;;10.88;2.08;;;;;;;12.72;96.43;100477.84;5244290;28;20040;-79
2024/04/02 08:50:21;;;;;;;5.55;1.60;;;;;;;12.89;94.02;100475.19;5242387;28;20041;-79
2024/04/02 08:52:53;;;;;;;9.60;1.83;;;;;;;13.07;91.04;100479.59;5243019;28;20470;-79
2024/04/02 08:55:26;;;;;;;7.82;2.45;;;;;;;13.25;92.95;100483.00;5244375;28;20453;-79
2024/04/02 08:57:58;;;;;;;9.35;2.08;;;;;;;13.39;90.84;100478.97;5244120;28;20094;-80
2024/04/02 09:00:30;;;;;;;6.82;2.38;;;;;;;13.47;87.65;100484.25;5245885;28;20537;-79
2024/04/02 09:03:03;;;;;;;6.72;2.42;;;;;;;13.46;83.80;100489.69;5245986;28;20032;-79
2024/04/02 09:05:34;;;;;;;7.50;2.28;;;;;;;13.54;84.55;100482.66;5243006;28;20024;-79
2024/04/02 09:08:09;;;;;;;10.77;1.88;;;;;;;13.66;87.07;100491.06;5247508;28;20035;-79
2024/04/02 09:10:42;;;;;;;7.45;1.60;;;;;;;13.51;84.16;100482.13;5246636;28;20503;-78
2024/04/02 09:13:14;;;;;;;;;;;;;;;14.24;79.93;100495.50;5246500;28;20033;-80
2024/04/02 09:15:47;;;;;;;6.18;1.88;;;;;;;13.54;81.52;100484.44;5246853;28;19939;-79
2024/04/02 09:18:19;;;;;;;6.30;1.50;;;;;;;13.69;84.13;100496.03;5247011;28;20033;-80
2024/04/02 09:20:51;;;;;;;9.57;2.40;;;;;;;13.73;81.06;100497.38;5246257;28;20044;-80
2024/04/02 09:23:23;;;;;;;6.65;2.28;;;;;;;13.82;81.46;100498.22;5246677;28;20028;-79
2024/04/02 09:25:56;;;;;;;7.82;1.70;;;;;;;13.72;78.91;100497.53;5246297;28;20049;-80
2024/04/02 09:28:28;;;;;;;6.55;1.85;;;;;;;13.60;79.49;100492.56;5227237;28;20036;-79
2024/04/02 09:31:00;;;;;;;5.60;1.58;;;;;;;13.52;80.45;100500.38;5246114;28;20033;-79
2024/04/02 09:33:36;;;;;;;5.57;1.45;;;;;;;13.61;82.51;100506.53;5246609;28;20391;-80
2024/04/02 09:36:15;;;;;;;7.15;1.63;;;;;;;13.27;96.22;100509.97;5246621;28;20020;-79
2024/04/02 09:38:47;;;;;;;4.78;1.67;;;;;;;13.21;100.00;100522.88;5244858;28;20040;-79
2024/04/02 09:41:20;;;;;;;5.93;1.73;;;;;;;12.95;100.00;100528.13;5247420;28;20379;-80
2024/04/02 09:43:53;;;;;;;3.13;1.27;;;;;;;12.89;100.00;100522.53;5246646;28;20048;-79
2024/04/02 09:46:28;;;;;;;6.75;1.50;;;;;;;12.85;100.00;100533.50;5244712;28;20033;-79
2024/04/02 09:49:01;;;;;;;6.82;1.55;;;;;;;12.81;100.00;100532.16;5245948;28;20033;-81
2024/04/02 09:51:34;;;;;;;4.93;1.52;;;;;;;12.76;100.00;100522.06;5246624;28;20040;-80
2024/04/02 09:54:06;;;;;;;6.40;1.67;;;;;;;12.74;100.00;100520.59;5243876;28;20037;-81
2024/04/02 09:56:38;;;;;;;6.05;1.52;;;;;;;12.82;100.00;100531.16;5245773;28;20558;-79
2024/04/02 09:59:12;;;;;;;5.45;1.92;;;;;;;12.82;100.00;100537.25;5227468;28;20044;-80
2024/04/02 10:01:45;;;;;;;5.55;1.23;;;;;;;12.84;100.00;100532.69;5246510;28;20590;-81
2024/04/02 10:04:20;;;;;;;5.40;1.38;;;;;;;12.94;100.00;100540.47;5245895;28;20033;-80
2024/04/02 10:06:56;;;;;;;4.50;1.50;;;;;;;12.94;100.00;100537.81;5245021;28;20666;-79
2024/04/02 10:09:41;;;;;;;5.60;1.70;;;;;;;13.11;100.00;100529.09;5245830;28;20533;-80
2024/04/02 10:12:17;;;;;;;5.63;1.70;;;;;;;12.94;100.00;100527.31;5245839;28;20025;-80
2024/04/02 10:14:50;;;;;;;5.50;1.60;;;;;;;12.88;100.00;100534.03;5244819;28;20051;-79
2024/04/02 10:17:22;;;;;;;8.07;2.00;;;;;;;12.79;100.00;100532.28;5244656;28;20024;-79
2024/04/02 10:19:54;;;;;;;7.70;1.88;;;;;;;12.83;100.00;100530.19;5244813;28;20395;-79
2024/04/02 10:22:36;;;;;;;6.85;1.88;;;;;;;13.01;100.00;100535.41;5244890;28;20055;-79
2024/04/02 10:25:10;;;;;;;5.45;1.63;;;;;;;12.75;100.00;100538.81;5246273;28;20544;-80
2024/04/02 10:27:43;;;;;;;;;;;;;;;13.48;100.00;100541.16;5244765;28;20033;-80
2024/04/02 10:30:20;;;;;;;9.55;3.50;;;;;;;12.91;100.00;100541.56;5245883;28;20350;-80
2024/04/02 10:32:54;;;;;;;9.13;3.70;;;;;;;12.73;100.00;100551.31;5246396;28;20390;-79
2024/04/02 10:35:27;;;;;;;9.30;3.22;;;;;;;12.75;100.00;100549.34;5244616;28;20040;-80
2024/04/02 10:37:59;;;;;;;5.97;1.95;;;;;;;12.58;100.00;100544.94;5243495;28;20487;-79
2024/04/02 10:40:31;;;;;;;5.78;1.52;;;;;;;12.52;100.00;100556.84;5246307;28;20028;-79
2024/04/02 10:43:04;;;;;;;5.43;1.60;;;;;;;12.48;100.00;100546.81;5227331;28;20793;-80
2024/04/02 10:45:36;;;;;;;9.68;2.22;;;;;;;12.26;100.00;100533.13;5245460;28;20056;-79
2024/04/02 10:48:08;;;;;;;4.97;1.83;;;;;;;12.31;100.00;100546.66;5245287;28;20024;-78
2024/04/02 10:50:40;;;;;;;4.85;1.50;;;;;;;12.33;100.00;100549.94;5243060;28;20031;-79
2024/04/02 10:53:12;;;;;;;4.97;1.20;;;;;;;12.15;100.00;100547.28;5244719;28;20024;-79
2024/04/02 10:55:44;;;;;;;3.67;1.40;;;;;;;12.20;100.00;100557.38;5245228;28;20130;-78
2024/04/02 10:58:16;;;;;;;5.05;1.25;;;;;;;12.29;100.00;100555.66;5242504;28;20068;-78
2024/04/02 11:00:49;;;;;;;3.80;1.20;;;;;;;12.15;100.00;100544.66;5244352;28;20522;-79
2024/04/02 11:03:21;;;;;;;;;;;;;;;12.93;100.00;100551.13;5245565;28;20025;-78
2024/04/02 11:05:53;;;;;;;2.65;0.80;;;;;;;12.26;100.00;100548.88;5244168;28;19926;-78
2024/04/02 11:08:25;;;;;;;2.47;0.90;;;;;;;12.18;100.00;100551.41;5226538;28;20052;-80
2024/04/02 11:10:57;;;;;;;3.38;1.08;;;;;;;12.18;100.00;100546.16;5226967;28;20766;-80
2024/04/02 11:13:29;;;;;;;4.57;1.20;;;;;;;12.10;100.00;100543.47;5244758;28;20067;-78
2024/04/02 11:16:01;;;;;;;4.05;0.95;;;;;;;12.14;100.00;100550.06;5242578;28;20133;-77
2024/04/02 11:18:34;;;;;;;3.35;0.90;;;;;;;12.17;100.00;100547.97;5244291;28;20029;-77
2024/04/02 11:21:06;;;;;;;2.63;1.35;;;;;;;12.21;100.00;100552.94;5245094;28;20035;-78
2024/04/02 11:26:29;;;;;;;2.90;1.00;;;;;;;12.18;100.00;100552.25;5244541;28;20037;-78
2024/04/02 11:29:05;;;;;;;7.35;3.40;;;;;;;12.37;100.00;100550.47;5243840;28;20518;-78
2024/04/02 11:31:36;;;;;;;5.95;3.15;;;;;;;12.33;100.00;100557.00;5243527;28;20040;-78
2024/04/02 11:34:08;;;;;;;5.63;3.40;;;;;;;12.51;100.00;100546.50;5243414;28;20033;-78
2024/04/02 11:36:40;;;;;;;3.60;1.80;;;;;;;12.47;100.00;100545.16;5244834;28;20031;-79
2024/04/02 11:39:12;;;;;;;3.20;1.30;;;;;;;12.60;100.00;100556.09;5240549;28;20036;-80
2024/04/02 11:41:44;;;;;;;3.63;1.10;;;;;;;12.59;100.00;100563.16;5244070;28;20029;-78
2024/04/02 11:44:16;;;;;;;4.60;1.20;;;;;;;12.63;100.00;100566.31;5243776;28;20201;-78
2024/04/02 11:46:48;;;;;;;3.30;1.10;;;;;;;12.62;100.00;100565.50;5222496;28;20036;-78